Time;durP1;ratioP1;P1;durP2;ratioP2;P2;SDS_P1;SDS_P2;PMS_P1;PMS_P2;Temp;Humidity;BMP_temperature;BMP_pressure;BME280_temperature;BME280_humidity;BME280_pressure;Samples;Min_cycle;Max_cycle;Signal;HPM_P1;HPM_P2
2023/12/19 00:01:32;;;;;;;21.27;12.30;;;8.70;99.90;;;;;;4994420;28;20544;-64
2023/12/19 00:03:58;;;;;;;25.27;12.82;;;8.70;99.90;;;;;;4982805;28;20049;-64
2023/12/19 00:06:23;;;;;;;18.92;12.15;;;8.70;99.90;;;;;;4992995;28;20416;-65
2023/12/19 00:08:49;;;;;;;16.95;9.13;;;8.70;99.90;;;;;;5001708;28;20049;-64
2023/12/19 00:11:18;;;;;;;20.23;10.77;;;8.70;99.90;;;;;;4999270;28;20447;-64
2023/12/19 00:13:43;;;;;;;16.45;9.63;;;8.70;99.90;;;;;;5002857;28;20062;-64
2023/12/19 00:16:11;;;;;;;26.70;12.65;;;8.70;99.90;;;;;;5001339;28;20392;-64
2023/12/19 00:18:37;;;;;;;20.92;12.02;;;8.70;99.90;;;;;;4997086;28;20058;-64
2023/12/19 00:21:03;;;;;;;23.13;11.18;;;8.60;99.90;;;;;;4977891;28;20164;-64
2023/12/19 00:23:30;;;;;;;15.30;9.75;;;8.70;99.90;;;;;;4974068;28;20129;-64
2023/12/19 00:25:57;;;;;;;26.27;10.65;;;8.60;99.90;;;;;;5001020;28;20057;-64
2023/12/19 00:28:24;;;;;;;19.63;11.63;;;8.60;99.90;;;;;;4994287;28;20061;-64
2023/12/19 00:30:49;;;;;;;14.80;9.50;;;8.70;99.90;;;;;;4980258;28;20370;-64
2023/12/19 00:33:15;;;;;;;15.18;9.82;;;8.60;99.90;;;;;;4997186;28;20452;-64
2023/12/19 00:35:41;;;;;;;24.80;10.40;;;8.60;99.90;;;;;;5002241;28;20042;-64
2023/12/19 00:38:06;;;;;;;16.27;9.07;;;8.60;99.90;;;;;;4985153;28;20045;-64
2023/12/19 00:40:32;;;;;;;16.00;9.70;;;8.60;99.90;;;;;;4998522;28;20046;-64
2023/12/19 00:42:58;;;;;;;18.83;10.95;;;8.60;99.90;;;;;;5002521;28;20462;-64
2023/12/19 00:45:23;;;;;;;15.07;9.30;;;8.60;99.90;;;;;;5001765;28;20056;-64
2023/12/19 00:47:49;;;;;;;13.85;9.48;;;8.60;99.90;;;;;;5002007;28;20048;-64
2023/12/19 00:50:15;;;;;;;14.82;8.73;;;8.60;99.90;;;;;;5002316;28;20473;-64
2023/12/19 00:52:42;;;;;;;17.75;9.63;;;8.50;99.90;;;;;;5001423;28;20041;-64
2023/12/19 00:55:08;;;;;;;18.02;10.10;;;8.50;99.90;;;;;;5002691;28;20109;-64
2023/12/19 00:57:34;;;;;;;15.45;8.35;;;8.50;99.90;;;;;;4993027;28;20594;-64
2023/12/19 01:00:00;;;;;;;17.15;10.18;;;8.50;99.90;;;;;;4987179;28;20050;-64
2023/12/19 01:02:27;;;;;;;22.95;10.20;;;8.50;99.90;;;;;;4966720;28;20048;-64
2023/12/19 01:04:56;;;;;;;12.30;7.72;;;8.60;99.90;;;;;;5001133;28;20050;-64
2023/12/19 01:07:22;;;;;;;12.30;8.35;;;8.60;99.90;;;;;;4985913;28;20049;-64
2023/12/19 01:09:48;;;;;;;16.05;9.02;;;8.60;99.90;;;;;;4986135;28;20042;-64
2023/12/19 01:12:14;;;;;;;14.40;10.55;;;8.60;99.90;;;;;;4993285;28;20037;-64
2023/12/19 01:14:45;;;;;;;15.50;6.47;;;8.60;99.90;;;;;;5002903;28;20435;-64
2023/12/19 01:17:11;;;;;;;18.13;10.25;;;8.60;99.90;;;;;;4995527;28;20060;-64
2023/12/19 01:19:37;;;;;;;8.98;6.50;;;8.60;99.90;;;;;;5000899;28;20068;-65
2023/12/19 01:22:04;;;;;;;11.05;7.65;;;8.60;99.90;;;;;;4983230;28;20527;-64
2023/12/19 01:24:30;;;;;;;16.08;10.27;;;8.50;99.90;;;;;;5001855;28;20054;-64
2023/12/19 01:26:56;;;;;;;11.75;8.10;;;8.50;99.90;;;;;;5001095;28;20092;-64
2023/12/19 01:29:22;;;;;;;11.25;6.25;;;8.60;99.90;;;;;;4982861;28;20585;-65
2023/12/19 01:31:49;;;;;;;18.10;9.15;;;8.60;99.90;;;;;;4995797;28;20050;-65
2023/12/19 01:34:14;;;;;;;14.63;8.98;;;8.60;99.90;;;;;;4999479;28;20535;-65
2023/12/19 01:36:41;;;;;;;10.40;6.80;;;8.60;99.90;;;;;;4998516;28;20034;-65
2023/12/19 01:39:08;;;;;;;12.18;8.48;;;8.70;99.90;;;;;;4979258;28;20088;-65
2023/12/19 01:41:34;;;;;;;10.15;7.97;;;8.70;99.90;;;;;;5001105;28;20045;-65
2023/12/19 01:44:00;;;;;;;10.27;6.78;;;8.60;99.90;;;;;;4967831;28;20458;-65
2023/12/19 01:46:26;;;;;;;11.02;7.88;;;8.70;99.90;;;;;;4964575;28;20047;-65
2023/12/19 01:48:54;;;;;;;10.70;7.90;;;8.60;99.90;;;;;;4983185;28;20069;-65
2023/12/19 01:51:20;;;;;;;10.63;7.97;;;8.60;99.90;;;;;;4999356;28;20528;-65
2023/12/19 01:53:48;;;;;;;9.25;6.00;;;8.60;99.90;;;;;;4983524;28;20041;-65
2023/12/19 01:56:17;;;;;;;14.40;7.53;;;8.60;99.90;;;;;;4980076;28;20058;-65
2023/12/19 01:58:44;;;;;;;8.52;6.18;;;8.60;99.90;;;;;;4970365;28;20090;-65
2023/12/19 02:01:14;;;;;;;9.90;6.93;;;8.60;99.90;;;;;;4988698;28;20066;-65
2023/12/19 02:03:41;;;;;;;10.45;6.40;;;8.60;99.90;;;;;;4996696;28;20046;-65
2023/12/19 02:06:09;;;;;;;8.38;5.68;;;8.60;99.90;;;;;;4989742;28;20050;-65
2023/12/19 02:08:34;;;;;;;10.50;7.47;;;8.60;99.90;;;;;;4996836;28;20054;-65
2023/12/19 02:11:00;;;;;;;9.00;7.03;;;8.50;99.90;;;;;;4994628;28;20463;-65
2023/12/19 02:13:26;;;;;;;10.68;6.63;;;8.60;99.90;;;;;;5000794;28;20046;-66
2023/12/19 02:15:52;;;;;;;7.60;6.03;;;8.50;99.90;;;;;;4972075;28;20042;-65
2023/12/19 02:18:19;;;;;;;9.23;6.78;;;8.50;99.90;;;;;;4983730;28;20050;-65
2023/12/19 02:20:45;;;;;;;10.77;6.95;;;8.50;99.90;;;;;;4996166;28;20068;-65
2023/12/19 02:23:16;;;;;;;9.25;7.03;;;8.60;99.90;;;;;;4981902;28;20161;-65
2023/12/19 02:25:42;;;;;;;7.70;5.72;;;8.50;99.90;;;;;;4977131;28;20128;-66
2023/12/19 02:28:08;;;;;;;9.30;6.70;;;8.50;99.90;;;;;;4983455;28;20171;-66
2023/12/19 02:30:35;;;;;;;9.55;6.13;;;8.50;99.90;;;;;;5001586;28;20046;-66
2023/12/19 02:33:01;;;;;;;10.02;7.25;;;8.50;99.90;;;;;;4978807;28;20054;-66
2023/12/19 02:35:27;;;;;;;12.18;8.38;;;8.50;99.90;;;;;;4957464;28;20492;-65
2023/12/19 02:37:53;;;;;;;9.32;6.45;;;8.50;99.90;;;;;;4989808;28;20048;-65
2023/12/19 02:40:18;;;;;;;11.98;7.97;;;8.50;99.90;;;;;;4974324;28;20058;-66
2023/12/19 02:42:44;;;;;;;11.65;6.10;;;8.50;99.90;;;;;;4985635;28;20057;-66
2023/12/19 02:45:10;;;;;;;9.48;6.72;;;8.50;99.90;;;;;;4959695;28;20046;-66
2023/12/19 02:47:36;;;;;;;8.68;5.45;;;8.50;99.90;;;;;;4998190;28;20515;-66
2023/12/19 02:50:02;;;;;;;7.90;5.95;;;8.40;99.90;;;;;;4986914;28;20046;-66
2023/12/19 02:52:28;;;;;;;7.57;5.78;;;8.60;99.90;;;;;;5004054;28;20503;-66
2023/12/19 02:54:54;;;;;;;7.38;5.88;;;8.50;99.90;;;;;;4985915;28;20068;-66
2023/12/19 02:57:19;;;;;;;7.22;5.80;;;8.50;99.90;;;;;;5002325;28;20120;-67
2023/12/19 02:59:45;;;;;;;5.90;5.20;;;8.50;99.90;;;;;;4993840;28;20045;-67
2023/12/19 03:02:11;;;;;;;6.88;5.78;;;8.60;99.90;;;;;;5001389;28;20045;-67
2023/12/19 03:04:38;;;;;;;8.23;6.13;;;8.50;99.90;;;;;;4987041;28;20757;-66
2023/12/19 03:07:04;;;;;;;8.15;6.60;;;8.50;99.90;;;;;;4991324;28;20517;-67
2023/12/19 03:09:30;;;;;;;6.60;4.60;;;8.50;99.90;;;;;;5003836;28;20041;-67
2023/12/19 03:12:07;;;;;;;5.90;5.28;;;8.50;99.90;;;;;;4986222;28;20096;-66
2023/12/19 03:14:34;;;;;;;7.00;5.40;;;8.50;99.90;;;;;;5004113;28;20330;-67
2023/12/19 03:17:04;;;;;;;6.68;5.05;;;8.50;99.90;;;;;;4986094;28;20308;-67
2023/12/19 03:19:30;;;;;;;6.43;5.65;;;8.50;99.90;;;;;;4985959;28;20054;-68
2023/12/19 03:21:56;;;;;;;6.03;5.22;;;8.50;99.90;;;;;;4980266;28;20056;-67
2023/12/19 03:24:22;;;;;;;4.68;3.38;;;8.50;99.90;;;;;;4980686;28;20570;-67
2023/12/19 03:26:48;;;;;;;4.53;3.67;;;8.40;99.90;;;;;;4980354;28;20089;-67
2023/12/19 03:29:14;;;;;;;6.50;5.28;;;8.50;99.90;;;;;;4996553;28;20057;-67
2023/12/19 03:31:42;;;;;;;5.95;5.20;;;8.40;99.90;;;;;;5003106;28;20133;-67
2023/12/19 03:34:08;;;;;;;7.43;5.43;;;8.40;99.90;;;;;;4982818;28;20042;-67
2023/12/19 03:36:34;;;;;;;4.93;3.97;;;8.50;99.90;;;;;;4983116;28;20141;-68
2023/12/19 03:38:59;;;;;;;8.63;5.80;;;8.40;99.90;;;;;;4984724;28;20211;-68
2023/12/19 03:41:25;;;;;;;6.85;6.07;;;8.40;99.90;;;;;;4985733;28;20461;-68
2023/12/19 03:43:51;;;;;;;6.35;5.00;;;8.40;99.90;;;;;;4980278;28;20401;-68
2023/12/19 03:46:17;;;;;;;5.40;4.95;;;8.40;99.90;;;;;;4985160;28;20038;-68
2023/12/19 03:48:45;;;;;;;3.40;3.10;;;8.40;99.90;;;;;;4985640;28;20034;-68
2023/12/19 03:51:14;;;;;;;4.32;3.88;;;8.30;99.90;;;;;;4983837;28;20104;-68
2023/12/19 03:53:40;;;;;;;2.70;2.50;;;8.30;99.90;;;;;;4984362;28;20129;-68
2023/12/19 03:59:01;;;;;;;3.75;3.42;;;8.30;99.90;;;;;;5006678;23;20050;-67
2023/12/19 04:01:26;;;;;;;2.88;2.42;;;8.30;99.90;;;;;;4985890;28;20050;-67
2023/12/19 04:03:52;;;;;;;5.30;4.40;;;8.30;99.90;;;;;;4986718;28;20044;-67
2023/12/19 04:06:18;;;;;;;5.05;3.55;;;8.30;99.90;;;;;;5004592;28;20073;-67
2023/12/19 04:08:44;;;;;;;4.70;3.95;;;8.30;99.90;;;;;;4983537;28;20099;-67
2023/12/19 04:11:09;;;;;;;4.45;3.83;;;8.20;99.90;;;;;;4986264;28;20050;-67
2023/12/19 04:13:38;;;;;;;3.55;3.25;;;8.30;99.90;;;;;;4956543;28;20519;-67
2023/12/19 04:16:04;;;;;;;4.53;3.92;;;8.20;99.90;;;;;;4986223;28;20054;-67
2023/12/19 04:18:29;;;;;;;3.63;3.33;;;8.20;99.90;;;;;;4985968;28;20872;-67
2023/12/19 04:20:55;;;;;;;3.10;2.80;;;8.10;99.90;;;;;;4985562;28;20120;-67
2023/12/19 04:23:21;;;;;;;4.35;3.92;;;8.20;99.90;;;;;;5003778;28;20057;-67
2023/12/19 04:25:47;;;;;;;3.17;2.97;;;8.10;99.90;;;;;;5003816;28;20076;-67
2023/12/19 04:28:13;;;;;;;4.20;3.80;;;8.10;99.90;;;;;;4986061;28;20124;-67
2023/12/19 04:30:39;;;;;;;3.38;3.08;;;8.10;99.90;;;;;;4985317;28;20207;-67
2023/12/19 04:33:05;;;;;;;3.03;2.83;;;8.10;99.90;;;;;;4985427;28;20057;-67
2023/12/19 04:35:30;;;;;;;4.60;4.30;;;8.00;99.90;;;;;;4986246;28;20136;-67
2023/12/19 04:37:56;;;;;;;3.50;3.17;;;8.00;99.90;;;;;;4968350;28;20485;-67
2023/12/19 04:40:22;;;;;;;3.00;2.67;;;8.00;99.90;;;;;;5002656;28;20033;-67
2023/12/19 04:42:48;;;;;;;3.20;2.90;;;8.00;99.90;;;;;;4965660;28;20096;-67
2023/12/19 04:45:13;;;;;;;2.70;2.50;;;8.00;99.90;;;;;;5004044;28;20041;-68
2023/12/19 04:47:39;;;;;;;2.10;1.98;;;8.00;99.90;;;;;;4984685;28;20450;-67
2023/12/19 04:50:08;;;;;;;2.55;2.35;;;7.90;99.90;;;;;;4985882;28;20055;-68
2023/12/19 04:52:34;;;;;;;2.95;2.38;;;7.90;99.90;;;;;;5002454;28;20050;-67
2023/12/19 04:55:00;;;;;;;2.40;2.30;;;7.90;99.90;;;;;;4986261;28;20497;-67
2023/12/19 04:57:25;;;;;;;2.33;1.90;;;7.90;99.90;;;;;;4985012;28;20132;-67
2023/12/19 04:59:51;;;;;;;2.40;2.25;;;8.00;99.90;;;;;;5003201;28;20045;-67
2023/12/19 05:02:17;;;;;;;2.40;2.30;;;7.90;99.90;;;;;;4984740;28;20066;-67
2023/12/19 05:04:42;;;;;;;2.78;2.10;;;7.90;99.90;;;;;;5003161;28;20050;-67
2023/12/19 05:07:10;;;;;;;2.67;2.45;;;8.00;99.90;;;;;;4985793;28;20069;-67
2023/12/19 05:09:36;;;;;;;1.92;1.83;;;7.90;99.90;;;;;;4984820;28;20775;-67
2023/12/19 05:12:03;;;;;;;3.30;2.30;;;7.80;99.90;;;;;;5003430;28;20047;-67
2023/12/19 05:14:28;;;;;;;2.20;2.00;;;7.90;99.90;;;;;;5017190;28;20058;-68
2023/12/19 05:16:54;;;;;;;2.20;2.10;;;7.90;99.90;;;;;;4985723;28;20045;-67
2023/12/19 05:19:20;;;;;;;7.65;2.38;;;7.90;99.90;;;;;;5003217;28;20049;-67
2023/12/19 05:21:45;;;;;;;4.20;2.70;;;7.80;99.90;;;;;;4983950;28;20822;-67
2023/12/19 05:24:11;;;;;;;2.55;2.00;;;7.90;99.90;;;;;;4985888;28;20085;-67
2023/12/19 05:26:37;;;;;;;2.22;2.03;;;7.80;99.90;;;;;;5002263;28;20042;-68
2023/12/19 05:29:03;;;;;;;4.57;2.00;;;7.80;99.90;;;;;;5002788;28;20038;-67
2023/12/19 05:31:29;;;;;;;2.30;2.20;;;7.90;99.90;;;;;;5016907;28;20622;-67
2023/12/19 05:33:55;;;;;;;2.63;2.42;;;7.90;99.90;;;;;;4985601;28;20132;-67
2023/12/19 05:36:21;;;;;;;1.77;1.67;;;7.80;99.90;;;;;;5002726;28;20080;-67
2023/12/19 05:38:52;;;;;;;2.08;1.98;;;7.90;99.90;;;;;;4985486;28;20093;-66
2023/12/19 05:41:18;;;;;;;2.00;1.80;;;7.80;99.90;;;;;;5002774;28;20476;-66
2023/12/19 05:43:43;;;;;;;2.05;1.95;;;7.80;99.90;;;;;;4980976;28;20034;-67
2023/12/19 05:46:09;;;;;;;2.20;2.10;;;7.90;99.90;;;;;;5003002;28;20046;-67
2023/12/19 05:48:35;;;;;;;2.67;1.70;;;7.80;99.90;;;;;;4984169;28;20250;-67
2023/12/19 05:51:03;;;;;;;1.88;1.42;;;7.80;99.90;;;;;;5003437;28;20050;-67
2023/12/19 05:53:29;;;;;;;1.90;1.50;;;7.90;99.90;;;;;;5002192;28;20582;-67
2023/12/19 05:55:55;;;;;;;2.28;2.15;;;7.80;99.90;;;;;;5002750;28;20113;-67
2023/12/19 05:58:20;;;;;;;1.75;1.65;;;7.80;99.90;;;;;;5002350;28;20062;-66
2023/12/19 06:00:48;;;;;;;1.15;1.15;;;7.80;99.90;;;;;;5000236;28;20050;-67
2023/12/19 06:03:14;;;;;;;1.80;1.70;;;7.80;99.90;;;;;;4997902;28;20046;-67
2023/12/19 06:05:40;;;;;;;1.20;1.20;;;7.90;99.90;;;;;;5001220;28;20049;-67
2023/12/19 06:08:06;;;;;;;2.25;1.48;;;7.90;99.90;;;;;;4986006;28;20077;-67
2023/12/19 06:10:32;;;;;;;4.97;1.70;;;7.90;99.90;;;;;;5000869;28;20519;-67
2023/12/19 06:12:58;;;;;;;1.83;1.73;;;7.90;99.90;;;;;;5003503;28;20729;-67
2023/12/19 06:15:23;;;;;;;1.27;1.17;;;7.80;99.90;;;;;;4983966;28;20463;-67
2023/12/19 06:17:49;;;;;;;2.47;1.70;;;7.90;99.90;;;;;;4988790;28;20060;-67
2023/12/19 06:20:15;;;;;;;1.48;1.38;;;7.90;99.90;;;;;;5005629;28;20046;-67
2023/12/19 06:22:44;;;;;;;2.13;1.60;;;7.90;99.90;;;;;;4988223;28;20049;-67
2023/12/19 06:25:10;;;;;;;7.88;1.25;;;7.80;99.90;;;;;;4987548;28;20046;-67
2023/12/19 06:27:36;;;;;;;1.38;1.25;;;7.80;99.90;;;;;;5003278;28;20366;-67
2023/12/19 06:30:05;;;;;;;1.90;1.80;;;7.90;99.90;;;;;;4988379;28;20058;-66
2023/12/19 06:32:31;;;;;;;1.77;1.67;;;7.80;99.90;;;;;;4986876;28;20228;-67
2023/12/19 06:34:57;;;;;;;3.67;1.83;;;7.80;99.90;;;;;;4988228;28;20074;-67
2023/12/19 06:37:23;;;;;;;1.50;1.40;;;7.80;99.90;;;;;;4988378;28;20041;-67
2023/12/19 06:39:49;;;;;;;1.80;1.70;;;7.80;99.90;;;;;;4987116;28;20107;-67
2023/12/19 06:42:14;;;;;;;1.42;1.42;;;7.90;99.90;;;;;;4989183;28;20050;-67
2023/12/19 06:44:40;;;;;;;1.67;1.52;;;7.80;99.90;;;;;;5004356;28;20294;-67
2023/12/19 06:47:06;;;;;;;1.67;1.55;;;7.90;99.90;;;;;;4988477;28;20049;-67
2023/12/19 06:49:31;;;;;;;1.25;1.25;;;7.90;99.90;;;;;;4983595;28;20076;-66
2023/12/19 06:51:57;;;;;;;4.20;2.03;;;7.90;99.90;;;;;;4987505;28;20052;-67
2023/12/19 06:54:23;;;;;;;2.03;1.67;;;7.80;99.90;;;;;;4970890;28;20515;-67
2023/12/19 06:56:49;;;;;;;1.35;1.35;;;7.90;99.90;;;;;;5002149;28;20057;-67
2023/12/19 06:59:14;;;;;;;2.38;2.10;;;7.90;99.90;;;;;;5000200;28;20400;-67
2023/12/19 07:01:40;;;;;;;2.05;1.77;;;7.90;99.90;;;;;;5002320;28;20061;-67
2023/12/19 07:04:06;;;;;;;1.95;1.85;;;7.90;99.90;;;;;;4988018;28;20470;-66
2023/12/19 07:06:32;;;;;;;2.45;1.80;;;7.90;99.90;;;;;;5004387;28;20045;-67
2023/12/19 07:08:57;;;;;;;2.20;2.00;;;7.90;99.90;;;;;;5006382;28;20542;-67
2023/12/19 07:11:24;;;;;;;3.80;1.73;;;7.90;99.90;;;;;;5005250;28;20048;-67
2023/12/19 07:13:50;;;;;;;2.53;1.55;;;7.90;99.90;;;;;;4987694;28;20050;-67
2023/12/19 07:16:18;;;;;;;1.77;1.67;;;7.90;99.90;;;;;;5005369;28;20487;-67
2023/12/19 07:18:47;;;;;;;2.00;1.90;;;7.90;99.90;;;;;;5004580;28;20033;-67
2023/12/19 07:21:20;;;;;;;1.90;1.73;;;8.00;99.90;;;;;;4987565;28;20046;-67
2023/12/19 07:23:47;;;;;;;1.92;1.70;;;8.00;99.90;;;;;;4986371;28;20478;-67
2023/12/19 07:26:23;;;;;;;1.98;1.88;;;7.90;99.90;;;;;;4987832;28;20088;-67
2023/12/19 07:28:50;;;;;;;3.10;1.70;;;7.90;99.90;;;;;;4986857;28;20052;-67
2023/12/19 07:31:28;;;;;;;1.83;1.63;;;8.00;99.90;;;;;;5001901;28;20097;-67
2023/12/19 07:33:58;;;;;;;1.85;1.75;;;7.90;99.90;;;;;;4987534;28;20054;-67
2023/12/19 07:36:24;;;;;;;;;;;8.00;99.90;;;;;;5004408;28;20121;-67
2023/12/19 07:38:51;;;;;;;2.20;2.00;;;8.00;99.90;;;;;;5020337;28;20629;-67
2023/12/19 07:41:16;;;;;;;2.17;1.83;;;8.00;99.90;;;;;;5003965;28;20073;-67
2023/12/19 07:43:42;;;;;;;1.48;1.38;;;7.90;99.90;;;;;;4987824;28;20578;-67
2023/12/19 07:46:08;;;;;;;4.25;1.77;;;8.00;99.90;;;;;;4986418;28;20188;-67
2023/12/19 07:48:34;;;;;;;1.90;1.80;;;8.00;99.90;;;;;;5004549;28;20041;-67
2023/12/19 07:51:00;;;;;;;2.03;1.80;;;8.00;99.90;;;;;;4987315;28;20046;-67
2023/12/19 07:53:26;;;;;;;1.60;1.52;;;8.00;99.90;;;;;;5004186;28;20084;-66
2023/12/19 07:55:52;;;;;;;2.58;1.23;;;8.10;99.90;;;;;;5004122;28;20050;-67
2023/12/19 07:58:18;;;;;;;1.25;1.20;;;8.00;99.90;;;;;;4986191;28;20216;-67
2023/12/19 08:00:44;;;;;;;3.97;1.95;;;8.10;99.90;;;;;;4985014;28;20391;-67
2023/12/19 08:03:10;;;;;;;1.63;1.52;;;8.00;99.90;;;;;;5004021;28;20177;-67
2023/12/19 08:05:35;;;;;;;1.50;1.40;;;8.10;99.90;;;;;;4983739;28;20712;-67
2023/12/19 08:08:01;;;;;;;4.03;1.17;;;8.10;99.90;;;;;;4985096;28;20069;-67
2023/12/19 08:10:27;;;;;;;1.35;1.27;;;8.10;99.90;;;;;;4984438;28;20559;-67
2023/12/19 08:12:54;;;;;;;1.45;1.45;;;8.10;99.90;;;;;;5004265;28;20562;-67
2023/12/19 08:15:20;;;;;;;8.15;1.38;;;8.10;99.90;;;;;;5003031;28;20046;-67
2023/12/19 08:17:45;;;;;;;1.77;1.67;;;8.20;99.90;;;;;;4970482;28;20057;-67
2023/12/19 08:20:15;;;;;;;1.60;1.50;;;8.20;99.90;;;;;;4968462;28;20096;-67
2023/12/19 08:22:42;;;;;;;4.13;1.00;;;8.20;99.90;;;;;;4983957;28;20049;-67
2023/12/19 08:25:10;;;;;;;1.38;1.38;;;8.20;99.90;;;;;;4986523;28;20658;-67
2023/12/19 08:27:36;;;;;;;3.10;1.30;;;8.20;99.90;;;;;;4980931;28;20049;-66
2023/12/19 08:30:03;;;;;;;1.10;1.10;;;8.20;99.90;;;;;;5004584;28;20072;-67
2023/12/19 08:32:29;;;;;;;1.00;1.00;;;8.20;99.90;;;;;;4985025;28;20054;-67
2023/12/19 08:34:58;;;;;;;1.80;1.20;;;8.20;99.90;;;;;;4986096;28;20045;-66
2023/12/19 08:37:25;;;;;;;0.95;0.95;;;8.30;99.90;;;;;;5016058;28;20057;-67
2023/12/19 08:39:54;;;;;;;1.58;1.48;;;8.30;99.90;;;;;;4967491;28;20054;-67
2023/12/19 08:42:21;;;;;;;1.20;1.20;;;8.30;99.90;;;;;;5004034;28;20284;-66
2023/12/19 08:44:46;;;;;;;1.38;1.27;;;8.20;99.90;;;;;;4985021;28;20364;-67
2023/12/19 08:47:13;;;;;;;1.30;1.30;;;8.30;99.90;;;;;;4970013;28;20133;-67
2023/12/19 08:49:43;;;;;;;1.45;1.35;;;8.30;99.90;;;;;;5002180;28;20227;-67
2023/12/19 08:52:12;;;;;;;1.40;1.30;;;8.30;99.90;;;;;;5003631;28;20133;-67
2023/12/19 08:54:38;;;;;;;1.17;1.17;;;8.30;99.90;;;;;;5001595;28;20052;-67
2023/12/19 08:57:06;;;;;;;1.45;1.35;;;8.30;99.90;;;;;;5002924;28;20030;-66
2023/12/19 08:59:32;;;;;;;1.38;1.38;;;8.30;99.90;;;;;;5002213;28;20053;-66
2023/12/19 09:01:58;;;;;;;1.35;1.35;;;8.30;99.90;;;;;;4984122;28;20052;-66
2023/12/19 09:04:24;;;;;;;2.90;1.25;;;8.40;99.90;;;;;;5004434;28;20445;-66
2023/12/19 09:06:50;;;;;;;1.75;1.50;;;8.40;99.90;;;;;;5001618;28;20507;-67
2023/12/19 09:09:16;;;;;;;1.30;1.30;;;8.40;99.90;;;;;;5004036;28;20054;-66
2023/12/19 09:11:42;;;;;;;1.05;1.05;;;8.40;99.90;;;;;;4983287;28;20046;-66
2023/12/19 09:14:11;;;;;;;1.35;1.13;;;8.40;99.90;;;;;;4986039;28;20100;-67
2023/12/19 09:16:37;;;;;;;1.48;1.30;;;8.40;99.90;;;;;;5000842;28;20156;-66
2023/12/19 09:19:03;;;;;;;1.15;1.15;;;8.40;99.90;;;;;;4982657;28;20033;-67
2023/12/19 09:21:29;;;;;;;1.48;1.45;;;8.40;99.90;;;;;;4982517;28;20042;-67
2023/12/19 09:23:54;;;;;;;1.20;1.20;;;8.40;99.90;;;;;;4999160;28;20045;-67
2023/12/19 09:26:20;;;;;;;1.55;1.45;;;8.40;99.90;;;;;;4982032;28;20046;-67
2023/12/19 09:28:46;;;;;;;1.48;1.40;;;8.40;99.90;;;;;;4983513;28;20050;-67
2023/12/19 09:31:12;;;;;;;1.40;1.30;;;8.40;99.90;;;;;;5002027;28;20574;-67
2023/12/19 09:33:39;;;;;;;1.88;1.27;;;8.50;99.90;;;;;;4982989;28;20057;-67
2023/12/19 09:36:09;;;;;;;1.40;1.40;;;8.50;99.90;;;;;;5001312;28;20046;-66
2023/12/19 09:38:36;;;;;;;;;;;8.50;99.90;;;;;;4985185;28;20050;-66
2023/12/19 09:41:03;;;;;;;1.55;1.45;;;8.60;99.90;;;;;;5000305;28;20375;-66
2023/12/19 09:43:33;;;;;;;1.20;1.20;;;8.50;99.90;;;;;;4984425;28;20572;-66
2023/12/19 09:46:02;;;;;;;1.70;1.65;;;8.60;99.90;;;;;;4999728;28;20467;-66
2023/12/19 09:48:33;;;;;;;1.95;1.83;;;8.60;99.90;;;;;;5003624;28;20037;-67
2023/12/19 09:51:04;;;;;;;1.52;1.42;;;8.60;99.90;;;;;;5004120;28;20049;-67
2023/12/19 09:53:34;;;;;;;1.85;1.75;;;8.60;99.90;;;;;;4986802;28;20128;-67
2023/12/19 09:56:00;;;;;;;2.08;1.90;;;8.60;99.90;;;;;;5006149;28;20057;-66
2023/12/19 09:58:28;;;;;;;1.42;1.42;;;8.60;99.90;;;;;;5005875;28;20124;-66
2023/12/19 10:00:59;;;;;;;1.70;1.60;;;8.60;99.90;;;;;;5006138;28;20781;-66
2023/12/19 10:03:28;;;;;;;1.48;1.40;;;8.70;99.90;;;;;;4987432;28;20523;-67
2023/12/19 10:05:56;;;;;;;1.73;1.63;;;8.70;99.90;;;;;;4988229;28;20065;-66
2023/12/19 10:08:22;;;;;;;2.00;1.80;;;8.70;99.90;;;;;;4988272;28;20053;-66
2023/12/19 10:10:55;;;;;;;2.03;1.92;;;8.70;99.90;;;;;;5006030;28;20123;-66
2023/12/19 10:13:28;;;;;;;1.77;1.67;;;8.80;99.90;;;;;;4999429;28;20522;-66
2023/12/19 10:16:04;;;;;;;1.88;1.70;;;8.70;99.90;;;;;;5004444;28;20050;-66
2023/12/19 10:18:30;;;;;;;2.00;1.90;;;8.80;99.90;;;;;;5003727;28;20138;-66
2023/12/19 10:21:14;;;;;;;1.80;1.70;;;8.80;99.90;;;;;;5003735;28;20539;-67
2023/12/19 10:23:40;;;;;;;2.30;2.10;;;8.80;99.90;;;;;;4988627;28;20587;-67
2023/12/19 10:26:07;;;;;;;2.05;1.83;;;8.80;99.90;;;;;;5005437;28;20058;-67
2023/12/19 10:28:33;;;;;;;1.98;1.88;;;8.80;99.90;;;;;;4987646;28;20496;-69
2023/12/19 10:31:12;;;;;;;1.88;1.63;;;8.90;99.90;;;;;;4987710;28;20053;-67
2023/12/19 10:33:54;;;;;;;1.85;1.75;;;8.80;99.90;;;;;;5005034;28;20184;-66
2023/12/19 10:36:32;;;;;;;1.98;1.88;;;8.90;99.90;;;;;;5005124;28;20046;-66
2023/12/19 10:39:00;;;;;;;2.08;1.98;;;8.90;99.90;;;;;;4987859;28;20053;-66
2023/12/19 10:41:31;;;;;;;2.03;1.90;;;9.00;99.90;;;;;;5004438;28;20453;-66
2023/12/19 10:43:58;;;;;;;1.98;1.88;;;9.00;99.90;;;;;;5011299;28;20050;-66
2023/12/19 10:46:27;;;;;;;1.67;1.58;;;9.00;99.90;;;;;;5001023;28;20050;-66
2023/12/19 10:48:54;;;;;;;0.60;0.60;;;9.00;99.90;;;;;;4987802;28;20049;-67
2023/12/19 10:51:34;;;;;;;1.52;1.52;;;9.00;99.90;;;;;;5004380;28;20552;-67
2023/12/19 10:54:08;;;;;;;1.30;1.23;;;9.00;99.90;;;;;;5005620;28;20496;-67
2023/12/19 10:56:41;;;;;;;1.40;1.25;;;9.00;99.90;;;;;;5013245;28;20058;-66
2023/12/19 10:59:16;;;;;;;1.48;1.38;;;9.10;99.90;;;;;;4976851;28;20728;-66
2023/12/19 11:01:43;;;;;;;0.85;0.85;;;9.10;99.90;;;;;;4968048;28;20763;-66
2023/12/19 11:04:19;;;;;;;1.50;1.42;;;9.10;99.90;;;;;;4984673;28;20042;-67
2023/12/19 11:07:02;;;;;;;1.80;1.70;;;9.10;99.90;;;;;;4984248;28;20053;-67
2023/12/19 11:09:33;;;;;;;2.17;2.08;;;9.20;99.90;;;;;;4976374;28;20125;-66
2023/12/19 11:12:04;;;;;;;0.95;0.95;;;9.20;99.90;;;;;;4976942;28;20092;-66
2023/12/19 11:14:30;;;;;;;1.80;1.70;;;9.20;99.90;;;;;;4975270;28;20042;-66
2023/12/19 11:17:15;;;;;;;2.00;1.75;;;9.10;99.90;;;;;;4977386;28;20591;-66
2023/12/19 11:19:46;;;;;;;6.05;1.67;;;9.10;99.90;;;;;;4980255;28;20050;-66
2023/12/19 11:22:25;;;;;;;2.20;2.10;;;9.20;99.90;;;;;;4985052;28;20046;-66
2023/12/19 11:25:12;;;;;;;2.08;1.98;;;9.20;99.90;;;;;;4963463;28;20506;-66
2023/12/19 11:27:43;;;;;;;2.17;1.98;;;9.30;99.90;;;;;;4985046;28;20061;-67
2023/12/19 11:30:36;;;;;;;2.30;2.10;;;9.30;99.90;;;;;;4986129;28;20042;-66
2023/12/19 11:33:13;;;;;;;2.50;2.30;;;9.20;99.90;;;;;;4984601;28;20048;-66
2023/12/19 11:35:39;;;;;;;2.97;1.85;;;9.30;99.90;;;;;;4985472;28;20060;-66
2023/12/19 11:38:20;;;;;;;8.20;2.30;;;9.20;99.90;;;;;;4997008;28;20242;-66
2023/12/19 11:40:45;;;;;;;2.05;1.95;;;9.30;99.90;;;;;;4983782;28;20165;-66
2023/12/19 11:43:30;;;;;;;2.22;2.08;;;9.30;99.90;;;;;;4983985;28;20986;-66
2023/12/19 11:45:57;;;;;;;1.90;1.80;;;9.30;99.90;;;;;;4985872;28;20289;-66
2023/12/19 11:48:55;;;;;;;3.05;1.77;;;9.30;99.90;;;;;;4964036;28;20126;-67
2023/12/19 11:51:50;;;;;;;2.00;1.90;;;9.30;99.90;;;;;;4962207;28;20055;-66
2023/12/19 11:54:17;;;;;;;3.22;1.63;;;9.30;99.90;;;;;;4995449;28;20108;-66
2023/12/19 11:56:44;;;;;;;2.35;2.17;;;9.30;99.90;;;;;;4999806;28;20043;-66
2023/12/19 11:59:11;;;;;;;1.80;1.70;;;9.30;99.90;;;;;;5000457;28;20060;-67
2023/12/19 12:01:41;;;;;;;1.83;1.73;;;9.40;99.90;;;;;;4986939;28;20054;-67
2023/12/19 12:04:08;;;;;;;;;;;9.40;99.90;;;;;;5003454;28;20080;-66
2023/12/19 12:06:34;;;;;;;2.10;1.92;;;9.40;99.90;;;;;;5019693;28;19925;-66
2023/12/19 12:08:59;;;;;;;4.40;1.50;;;9.40;99.90;;;;;;4998397;28;20046;-67
2023/12/19 12:11:26;;;;;;;2.20;2.05;;;9.40;99.90;;;;;;4983278;28;20052;-67
2023/12/19 12:14:03;;;;;;;1.48;1.40;;;9.40;99.90;;;;;;4999730;28;20120;-67
2023/12/19 12:16:38;;;;;;;2.15;1.75;;;9.40;99.90;;;;;;4999796;28;20041;-66
2023/12/19 12:19:12;;;;;;;1.80;1.70;;;9.40;99.90;;;;;;5002129;28;20084;-67
2023/12/19 12:21:51;;;;;;;1.65;1.55;;;9.40;99.90;;;;;;4969946;28;20378;-67
2023/12/19 12:24:20;;;;;;;1.88;1.75;;;9.40;99.90;;;;;;4995898;28;20060;-67
2023/12/19 12:26:48;;;;;;;1.83;1.73;;;9.40;99.90;;;;;;5003032;28;20655;-67
2023/12/19 12:29:16;;;;;;;1.83;1.73;;;9.40;99.90;;;;;;4982929;28;20038;-67
2023/12/19 12:31:41;;;;;;;1.88;1.77;;;9.40;99.90;;;;;;5004013;28;20549;-67
2023/12/19 12:34:07;;;;;;;1.67;1.58;;;9.40;99.90;;;;;;4984800;28;20046;-67
2023/12/19 12:36:33;;;;;;;2.00;1.90;;;9.40;99.90;;;;;;4986127;28;20148;-67
2023/12/19 12:38:59;;;;;;;6.07;2.05;;;9.40;99.90;;;;;;4984466;28;20067;-67
2023/12/19 12:41:25;;;;;;;2.75;1.65;;;9.40;99.90;;;;;;5001936;28;20041;-67
2023/12/19 12:43:55;;;;;;;1.88;1.77;;;9.40;99.90;;;;;;5003008;28;20073;-68
2023/12/19 12:46:32;;;;;;;1.88;1.77;;;9.40;99.90;;;;;;5078924;27;20490;-67
2023/12/19 12:49:00;;;;;;;2.00;1.90;;;9.50;99.90;;;;;;5076719;28;20530;-67
2023/12/19 12:51:26;;;;;;;1.60;1.60;;;9.50;99.90;;;;;;5075863;28;20131;-67
2023/12/19 12:53:57;;;;;;;1.55;1.45;;;9.50;99.90;;;;;;5075772;28;20051;-67
2023/12/19 12:56:34;;;;;;;1.95;1.85;;;9.50;99.90;;;;;;5060761;28;20636;-67
2023/12/19 12:59:07;;;;;;;1.70;1.60;;;9.50;99.90;;;;;;5072168;28;20055;-68
2023/12/19 13:01:38;;;;;;;1.60;1.60;;;9.50;99.90;;;;;;5076613;28;20552;-67